sensor_id;sensor_type;location;lat;lon;timestamp;temperature;humidity
66598;DHT22;57424;53.128;6.406;2022-11-03T01:27:43;18.20;92.60
66598;DHT22;57424;53.128;6.406;2022-11-03T01:30:09;18.40;92.60
66598;DHT22;57424;53.128;6.406;2022-11-03T01:32:34;18.40;92.50
66598;DHT22;57424;53.128;6.406;2022-11-03T01:35:00;18.40;92.60
66598;DHT22;57424;53.128;6.406;2022-11-03T01:37:25;18.40;92.70
66598;DHT22;57424;53.128;6.406;2022-11-03T01:39:51;18.40;92.60
66598;DHT22;57424;53.128;6.406;2022-11-03T01:42:17;18.40;92.60
66598;DHT22;57424;53.128;6.406;2022-11-03T01:44:46;18.30;92.50
66598;DHT22;57424;53.128;6.406;2022-11-03T01:47:14;18.40;92.60
66598;DHT22;57424;53.128;6.406;2022-11-03T01:50:04;18.40;92.60
66598;DHT22;57424;53.128;6.406;2022-11-03T01:52:50;18.40;92.70
66598;DHT22;57424;53.128;6.406;2022-11-03T01:55:25;18.30;92.60
66598;DHT22;57424;53.128;6.406;2022-11-03T02:00:27;18.30;92.60
66598;DHT22;57424;53.128;6.406;2022-11-03T02:02:53;18.30;92.70
66598;DHT22;57424;53.128;6.406;2022-11-03T02:05:21;18.30;92.60
66598;DHT22;57424;53.128;6.406;2022-11-03T02:10:32;18.30;92.60
66598;DHT22;57424;53.128;6.406;2022-11-03T02:12:58;18.30;92.60
66598;DHT22;57424;53.128;6.406;2022-11-03T02:15:24;18.30;92.60
66598;DHT22;57424;53.128;6.406;2022-11-03T02:17:51;18.30;92.70
66598;DHT22;57424;53.128;6.406;2022-11-03T02:20:22;18.20;92.70
66598;DHT22;57424;53.128;6.406;2022-11-03T02:23:16;18.30;92.70
66598;DHT22;57424;53.128;6.406;2022-11-03T02:25:50;18.30;92.70
66598;DHT22;57424;53.128;6.406;2022-11-03T02:28:28;18.20;92.70
66598;DHT22;57424;53.128;6.406;2022-11-03T02:31:11;18.20;92.70
66598;DHT22;57424;53.128;6.406;2022-11-03T02:33:48;18.20;92.80
66598;DHT22;57424;53.128;6.406;2022-11-03T02:39:08;18.20;92.80
66598;DHT22;57424;53.128;6.406;2022-11-03T02:41:37;18.20;92.70
66598;DHT22;57424;53.128;6.406;2022-11-03T02:44:05;18.20;92.80
66598;DHT22;57424;53.128;6.406;2022-11-03T02:46:33;18.30;92.80
66598;DHT22;57424;53.128;6.406;2022-11-03T02:49:00;18.20;92.70
66598;DHT22;57424;53.128;6.406;2022-11-03T02:51:26;18.20;92.70
66598;DHT22;57424;53.128;6.406;2022-11-03T02:54:12;18.20;92.70
66598;DHT22;57424;53.128;6.406;2022-11-03T02:56:44;18.20;92.70
66598;DHT22;57424;53.128;6.406;2022-11-03T02:59:17;18.20;92.80
66598;DHT22;57424;53.128;6.406;2022-11-03T03:02:02;18.20;92.80
66598;DHT22;57424;53.128;6.406;2022-11-03T03:04:41;18.20;92.80
66598;DHT22;57424;53.128;6.406;2022-11-03T03:07:21;18.20;92.80
66598;DHT22;57424;53.128;6.406;2022-11-03T03:09:57;18.10;92.80
66598;DHT22;57424;53.128;6.406;2022-11-03T03:12:25;18.10;92.80
66598;DHT22;57424;53.128;6.406;2022-11-03T03:14:53;18.20;92.80
66598;DHT22;57424;53.128;6.406;2022-11-03T03:25:07;18.10;92.90
66598;DHT22;57424;53.128;6.406;2022-11-03T03:27:36;18.10;92.90
66598;DHT22;57424;53.128;6.406;2022-11-03T03:30:05;18.10;92.90
66598;DHT22;57424;53.128;6.406;2022-11-03T03:32:36;18.10;93.00
66598;DHT22;57424;53.128;6.406;2022-11-03T03:35:04;18.10;93.00
66598;DHT22;57424;53.128;6.406;2022-11-03T03:40:03;18.10;92.90
66598;DHT22;57424;53.128;6.406;2022-11-03T14:21:33;18.90;93.20
66598;DHT22;57424;53.128;6.406;2022-11-03T14:24:02;18.90;93.10
66598;DHT22;57424;53.128;6.406;2022-11-03T14:26:28;18.90;93.30
66598;DHT22;57424;53.128;6.406;2022-11-03T14:28:53;18.90;93.30
66598;DHT22;57424;53.128;6.406;2022-11-03T14:31:19;18.80;93.30
66598;DHT22;57424;53.128;6.406;2022-11-03T14:33:44;18.80;93.30
66598;DHT22;57424;53.128;6.406;2022-11-03T14:36:10;18.90;93.30
66598;DHT22;57424;53.128;6.406;2022-11-03T14:38:35;18.90;93.30
66598;DHT22;57424;53.128;6.406;2022-11-03T14:41:01;18.80;93.30
66598;DHT22;57424;53.128;6.406;2022-11-03T14:43:45;18.90;93.40
66598;DHT22;57424;53.128;6.406;2022-11-03T14:46:11;18.80;93.40
66598;DHT22;57424;53.128;6.406;2022-11-03T14:48:36;18.80;93.40
66598;DHT22;57424;53.128;6.406;2022-11-03T14:51:02;18.80;93.40
66598;DHT22;57424;53.128;6.406;2022-11-03T14:53:27;18.80;93.50
66598;DHT22;57424;53.128;6.406;2022-11-03T14:55:53;18.90;93.60
